sensor_id;sensor_type;location;lat;lon;timestamp;pressure;altitude;pressure_sealevel;temperature;humidity
69221;BME280;56331;51.992;20.910;2023-03-20T00:01:02;100144.41;;;22.42;29.94
69221;BME280;56331;51.992;20.910;2023-03-20T00:03:28;100139.44;;;22.41;29.99
69221;BME280;56331;51.992;20.910;2023-03-20T00:05:54;100140.02;;;22.41;30.07
69221;BME280;56331;51.992;20.910;2023-03-20T00:08:21;100133.66;;;22.40;30.00
69221;BME280;56331;51.992;20.910;2023-03-20T00:10:47;100139.22;;;22.40;30.13
69221;BME280;56331;51.992;20.910;2023-03-20T00:13:20;100139.44;;;22.41;30.12
69221;BME280;56331;51.992;20.910;2023-03-20T00:15:46;100133.66;;;22.40;30.17
69221;BME280;56331;51.992;20.910;2023-03-20T00:18:17;100130.89;;;22.40;30.23
69221;BME280;56331;51.992;20.910;2023-03-20T00:20:40;100132.28;;;22.40;30.27
69221;BME280;56331;51.992;20.910;2023-03-20T00:23:06;100130.30;;;22.41;30.23
69221;BME280;56331;51.992;20.910;2023-03-20T00:25:32;100128.92;;;22.41;30.30
69221;BME280;56331;51.992;20.910;2023-03-20T00:27:58;100131.91;;;22.42;30.32
69221;BME280;56331;51.992;20.910;2023-03-20T00:30:28;100131.11;;;22.41;30.30
69221;BME280;56331;51.992;20.910;2023-03-20T00:32:55;100132.50;;;22.41;30.34
69221;BME280;56331;51.992;20.910;2023-03-20T00:35:26;100133.30;;;22.42;30.32
69221;BME280;56331;51.992;20.910;2023-03-20T00:37:53;100133.88;;;22.41;30.39
69221;BME280;56331;51.992;20.910;2023-03-20T00:40:19;100131.11;;;22.41;30.40
69221;BME280;56331;51.992;20.910;2023-03-20T00:42:49;100127.53;;;22.41;30.41
69221;BME280;56331;51.992;20.910;2023-03-20T00:45:17;100122.56;;;22.40;30.43
69221;BME280;56331;51.992;20.910;2023-03-20T00:47:43;100119.20;;;22.41;30.43
69221;BME280;56331;51.992;20.910;2023-03-20T00:52:43;100120.38;;;22.40;30.42
69221;BME280;56331;51.992;20.910;2023-03-20T00:55:09;100119.20;;;22.41;30.46
69221;BME280;56331;51.992;20.910;2023-03-20T00:57:40;100117.59;;;22.40;30.52
69221;BME280;56331;51.992;20.910;2023-03-20T01:00:11;100109.48;;;22.41;30.53
69221;BME280;56331;51.992;20.910;2023-03-20T01:02:35;100110.88;;;22.41;30.50
69221;BME280;56331;51.992;20.910;2023-03-20T01:05:01;100109.48;;;22.41;30.55
69221;BME280;56331;51.992;20.910;2023-03-20T01:07:28;100112.27;;;22.41;30.58
69221;BME280;56331;51.992;20.910;2023-03-20T01:09:54;100111.22;;;22.39;30.54
69221;BME280;56331;51.992;20.910;2023-03-20T01:12:21;100112.85;;;22.40;30.60
69221;BME280;56331;51.992;20.910;2023-03-20T01:14:50;100110.08;;;22.40;30.62
69221;BME280;56331;51.992;20.910;2023-03-20T01:17:19;100107.64;;;22.39;30.63
69221;BME280;56331;51.992;20.910;2023-03-20T01:19:47;100108.44;;;22.39;30.65
69221;BME280;56331;51.992;20.910;2023-03-20T01:22:14;100105.66;;;22.39;30.65
69221;BME280;56331;51.992;20.910;2023-03-20T01:24:42;100103.47;;;22.39;30.67
69221;BME280;56331;51.992;20.910;2023-03-20T01:27:16;100109.02;;;22.39;30.67
69221;BME280;56331;51.992;20.910;2023-03-20T01:29:39;100102.89;;;22.39;30.67
69221;BME280;56331;51.992;20.910;2023-03-20T01:32:13;100104.06;;;22.38;30.70
69221;BME280;56331;51.992;20.910;2023-03-20T01:34:39;100102.67;;;22.38;30.69
69221;BME280;56331;51.992;20.910;2023-03-20T01:37:08;100102.45;;;22.37;30.70
69221;BME280;56331;51.992;20.910;2023-03-20T01:39:34;100106.25;;;22.39;30.74
69221;BME280;56331;51.992;20.910;2023-03-20T01:42:01;100103.25;;;22.38;30.74
69221;BME280;56331;51.992;20.910;2023-03-20T01:44:28;100111.58;;;22.38;30.70
69221;BME280;56331;51.992;20.910;2023-03-20T01:46:54;100101.28;;;22.38;30.69
69221;BME280;56331;51.992;20.910;2023-03-20T01:51:50;100103.47;;;22.39;30.75
69221;BME280;56331;51.992;20.910;2023-03-20T01:54:18;100101.87;;;22.38;30.76
69221;BME280;56331;51.992;20.910;2023-03-20T01:56:49;100094.34;;;22.38;30.74
69221;BME280;56331;51.992;20.910;2023-03-20T01:59:14;100096.78;;;22.40;30.75
69221;BME280;56331;51.992;20.910;2023-03-20T02:01:41;100091.91;;;22.37;30.74
69221;BME280;56331;51.992;20.910;2023-03-20T02:04:07;100100.70;;;22.39;30.76
69221;BME280;56331;51.992;20.910;2023-03-20T02:06:34;100095.15;;;22.39;30.81
69221;BME280;56331;51.992;20.910;2023-03-20T02:09:02;100093.55;;;22.38;30.76
69221;BME280;56331;51.992;20.910;2023-03-20T02:11:29;100091.57;;;22.38;30.75
69221;BME280;56331;51.992;20.910;2023-03-20T02:13:56;100087.75;;;22.37;30.79
69221;BME280;56331;51.992;20.910;2023-03-20T02:16:22;100087.75;;;22.37;30.81
69221;BME280;56331;51.992;20.910;2023-03-20T02:18:49;100081.98;;;22.36;30.87
69221;BME280;56331;51.992;20.910;2023-03-20T02:27:00;100083.95;;;22.35;30.84
69221;BME280;56331;51.992;20.910;2023-03-20T02:35:27;100073.98;;;22.34;30.85
69221;BME280;56331;51.992;20.910;2023-03-20T02:37:30;100072.05;;;22.35;30.85
69221;BME280;56331;51.992;20.910;2023-03-20T02:40:01;100071.22;;;22.34;30.89
69221;BME280;56331;51.992;20.910;2023-03-20T02:45:13;100066.25;;;22.34;30.87
69221;BME280;56331;51.992;20.910;2023-03-20T02:47:57;100067.05;;;22.34;30.85
69221;BME280;56331;51.992;20.910;2023-03-20T02:50:43;100062.89;;;22.34;30.82
69221;BME280;56331;51.992;20.910;2023-03-20T02:53:16;100064.86;;;22.34;30.83
69221;BME280;56331;51.992;20.910;2023-03-20T02:55:45;100060.11;;;22.34;30.84
69221;BME280;56331;51.992;20.910;2023-03-20T03:00:50;100063.26;;;22.33;30.84
69221;BME280;56331;51.992;20.910;2023-03-20T03:03:18;100056.32;;;22.33;30.82
69221;BME280;56331;51.992;20.910;2023-03-20T03:05:55;100052.96;;;22.33;30.43
69221;BME280;56331;51.992;20.910;2023-03-20T03:08:26;100061.88;;;22.33;30.17
69221;BME280;56331;51.992;20.910;2023-03-20T03:11:14;100056.10;;;22.32;29.96
69221;BME280;56331;51.992;20.910;2023-03-20T03:13:22;100054.13;;;22.32;29.75
69221;BME280;56331;51.992;20.910;2023-03-20T03:15:54;100064.64;;;22.33;29.66
69221;BME280;56331;51.992;20.910;2023-03-20T03:18:18;100067.20;;;22.32;29.61
69221;BME280;56331;51.992;20.910;2023-03-20T03:20:45;100072.75;;;22.32;29.60
69221;BME280;56331;51.992;20.910;2023-03-20T03:23:17;100065.23;;;22.32;29.59
69221;BME280;56331;51.992;20.910;2023-03-20T03:25:41;100063.04;;;22.32;29.53
69221;BME280;56331;51.992;20.910;2023-03-20T03:30:37;100060.83;;;22.31;29.46
69221;BME280;56331;51.992;20.910;2023-03-20T03:35:32;100063.04;;;22.32;29.35
69221;BME280;56331;51.992;20.910;2023-03-20T03:40:34;100063.97;;;22.30;29.08
69221;BME280;56331;51.992;20.910;2023-03-20T03:43:06;100064.18;;;22.31;29.14
69221;BME280;56331;51.992;20.910;2023-03-20T03:45:30;100059.44;;;22.31;29.07
69221;BME280;56331;51.992;20.910;2023-03-20T03:47:57;100057.03;;;22.30;28.96
69221;BME280;56331;51.992;20.910;2023-03-20T03:50:25;100046.52;;;22.29;28.91
69221;BME280;56331;51.992;20.910;2023-03-20T03:52:52;100039.80;;;22.30;28.92
69221;BME280;56331;51.992;20.910;2023-03-20T03:55:24;100040.37;;;22.30;28.87
69221;BME280;56331;51.992;20.910;2023-03-20T03:57:52;100039.80;;;22.30;28.83
69221;BME280;56331;51.992;20.910;2023-03-20T04:00:22;100038.74;;;22.28;28.77
69221;BME280;56331;51.992;20.910;2023-03-20T04:02:50;100049.05;;;22.28;28.68
69221;BME280;56331;51.992;20.910;2023-03-20T04:05:18;100038.74;;;22.28;28.74
69221;BME280;56331;51.992;20.910;2023-03-20T04:07:46;100045.47;;;22.27;29.00
69221;BME280;56331;51.992;20.910;2023-03-20T04:10:13;100046.85;;;22.27;29.16
69221;BME280;56331;51.992;20.910;2023-03-20T04:12:41;100046.64;;;22.26;29.28
69221;BME280;56331;51.992;20.910;2023-03-20T04:15:08;100052.19;;;22.26;29.33
69221;BME280;56331;51.992;20.910;2023-03-20T04:17:35;100053.58;;;22.26;29.35
69221;BME280;56331;51.992;20.910;2023-03-20T04:20:01;100051.94;;;22.25;29.40
69221;BME280;56331;51.992;20.910;2023-03-20T04:22:28;100051.35;;;22.26;29.44
69221;BME280;56331;51.992;20.910;2023-03-20T04:24:54;100050.55;;;22.25;29.48
69221;BME280;56331;51.992;20.910;2023-03-20T04:27:20;100049.16;;;22.25;29.49
69221;BME280;56331;51.992;20.910;2023-03-20T04:29:51;100044.20;;;22.25;29.53
69221;BME280;56331;51.992;20.910;2023-03-20T04:32:15;100048.02;;;22.26;29.54
69221;BME280;56331;51.992;20.910;2023-03-20T04:34:41;100047.56;;;22.24;29.55
69221;BME280;56331;51.992;20.910;2023-03-20T04:37:07;100043.40;;;22.24;29.58
69221;BME280;56331;51.992;20.910;2023-03-20T04:39:34;100044.53;;;22.23;29.54
69221;BME280;56331;51.992;20.910;2023-03-20T04:42:02;100042.34;;;22.23;29.62
69221;BME280;56331;51.992;20.910;2023-03-20T04:44:28;100045.92;;;22.23;29.68
69221;BME280;56331;51.992;20.910;2023-03-20T04:46:54;100046.76;;;22.24;29.69
69221;BME280;56331;51.992;20.910;2023-03-20T04:49:21;100044.53;;;22.23;29.62
69221;BME280;56331;51.992;20.910;2023-03-20T04:51:51;100043.73;;;22.23;29.63
69221;BME280;56331;51.992;20.910;2023-03-20T04:54:17;100050.80;;;22.20;29.68
69221;BME280;56331;51.992;20.910;2023-03-20T04:56:44;100045.70;;;22.22;29.68
69221;BME280;56331;51.992;20.910;2023-03-20T04:59:10;100040.50;;;22.21;29.68
69221;BME280;56331;51.992;20.910;2023-03-20T05:01:36;100045.49;;;22.21;29.61
69221;BME280;56331;51.992;20.910;2023-03-20T05:04:02;100047.44;;;22.21;29.61
69221;BME280;56331;51.992;20.910;2023-03-20T05:06:28;100051.59;;;22.21;29.36
69221;BME280;56331;51.992;20.910;2023-03-20T05:08:56;100051.04;;;22.21;29.06
69221;BME280;56331;51.992;20.910;2023-03-20T05:11:24;100049.88;;;22.22;28.99
69221;BME280;56331;51.992;20.910;2023-03-20T05:13:50;100056.59;;;22.21;28.79
69221;BME280;56331;51.992;20.910;2023-03-20T05:16:16;100057.39;;;22.22;28.74
69221;BME280;56331;51.992;20.910;2023-03-20T05:18:43;100054.62;;;22.22;28.67
69221;BME280;56331;51.992;20.910;2023-03-20T05:21:09;100057.14;;;22.21;28.58
69221;BME280;56331;51.992;20.910;2023-03-20T05:23:35;100064.91;;;22.21;28.46
69221;BME280;56331;51.992;20.910;2023-03-20T05:26:04;100066.52;;;22.22;28.55
69221;BME280;56331;51.992;20.910;2023-03-20T05:28:29;100060.75;;;22.21;28.53
69221;BME280;56331;51.992;20.910;2023-03-20T05:30:56;100064.91;;;22.21;28.35
69221;BME280;56331;51.992;20.910;2023-03-20T05:33:22;100067.10;;;22.22;28.47
69221;BME280;56331;51.992;20.910;2023-03-20T05:35:48;100063.74;;;22.22;28.42
69221;BME280;56331;51.992;20.910;2023-03-20T05:38:16;100060.75;;;22.21;28.33
69221;BME280;56331;51.992;20.910;2023-03-20T05:40:48;100060.97;;;22.22;28.20
69221;BME280;56331;51.992;20.910;2023-03-20T05:43:14;100064.91;;;22.21;28.02
69221;BME280;56331;51.992;20.910;2023-03-20T05:45:41;100068.24;;;22.21;28.12
69221;BME280;56331;51.992;20.910;2023-03-20T05:48:08;100064.08;;;22.21;28.21
69221;BME280;56331;51.992;20.910;2023-03-20T05:50:35;100060.50;;;22.20;28.16
69221;BME280;56331;51.992;20.910;2023-03-20T05:53:01;100059.12;;;22.20;28.05
69221;BME280;56331;51.992;20.910;2023-03-20T05:55:28;100062.70;;;22.21;28.05
69221;BME280;56331;51.992;20.910;2023-03-20T05:57:54;100064.08;;;22.21;28.09
69221;BME280;56331;51.992;20.910;2023-03-20T06:00:21;100066.05;;;22.20;28.08
69221;BME280;56331;51.992;20.910;2023-03-20T06:02:47;100069.08;;;22.21;28.09
69221;BME280;56331;51.992;20.910;2023-03-20T06:05:14;100067.69;;;22.21;28.16
69221;BME280;56331;51.992;20.910;2023-03-20T06:07:40;100066.30;;;22.21;28.16
69221;BME280;56331;51.992;20.910;2023-03-20T06:10:07;100064.33;;;22.22;28.15
69221;BME280;56331;51.992;20.910;2023-03-20T06:12:33;100072.41;;;22.21;28.13
69221;BME280;56331;51.992;20.910;2023-03-20T06:14:59;100071.84;;;22.21;28.15
69221;BME280;56331;51.992;20.910;2023-03-20T06:17:25;100073.45;;;22.22;28.22
69221;BME280;56331;51.992;20.910;2023-03-20T06:19:52;100073.23;;;22.21;28.38
69221;BME280;56331;51.992;20.910;2023-03-20T06:22:18;100073.80;;;22.21;28.54
69221;BME280;56331;51.992;20.910;2023-03-20T06:24:44;100071.84;;;22.21;28.75
69221;BME280;56331;51.992;20.910;2023-03-20T06:27:11;100073.80;;;22.21;28.92
69221;BME280;56331;51.992;20.910;2023-03-20T06:29:37;100066.05;;;22.20;29.08
69221;BME280;56331;51.992;20.910;2023-03-20T06:32:05;100073.45;;;22.22;29.22
69221;BME280;56331;51.992;20.910;2023-03-20T06:34:31;100076.81;;;22.22;29.26
69221;BME280;56331;51.992;20.910;2023-03-20T06:36:57;100073.45;;;22.22;29.30
69221;BME280;56331;51.992;20.910;2023-03-20T06:39:23;100080.61;;;22.23;29.43
69221;BME280;56331;51.992;20.910;2023-03-20T06:41:52;100080.86;;;22.24;29.62
69221;BME280;56331;51.992;20.910;2023-03-20T06:44:18;100081.44;;;22.24;29.78
69221;BME280;56331;51.992;20.910;2023-03-20T06:46:44;100084.22;;;22.24;29.92
69221;BME280;56331;51.992;20.910;2023-03-20T06:49:10;100079.47;;;22.24;29.99
69221;BME280;56331;51.992;20.910;2023-03-20T06:51:39;100082.24;;;22.24;29.99
69221;BME280;56331;51.992;20.910;2023-03-20T06:54:08;100078.08;;;22.24;30.03
69221;BME280;56331;51.992;20.910;2023-03-20T06:56:34;100079.47;;;22.24;30.45
69221;BME280;56331;51.992;20.910;2023-03-20T06:59:00;100078.30;;;22.25;30.32
69221;BME280;56331;51.992;20.910;2023-03-20T07:01:26;100084.65;;;22.26;30.10
69221;BME280;56331;51.992;20.910;2023-03-20T07:03:52;100081.32;;;22.26;29.96
69221;BME280;56331;51.992;20.910;2023-03-20T07:06:19;100080.48;;;22.26;29.94
69221;BME280;56331;51.992;20.910;2023-03-20T07:08:46;100080.73;;;22.27;29.85
69221;BME280;56331;51.992;20.910;2023-03-20T07:11:13;100081.54;;;22.27;29.83
69221;BME280;56331;51.992;20.910;2023-03-20T07:13:39;100079.94;;;22.26;29.89
69221;BME280;56331;51.992;20.910;2023-03-20T07:16:08;100081.54;;;22.27;30.07
69221;BME280;56331;51.992;20.910;2023-03-20T07:18:34;100078.77;;;22.27;30.19
69221;BME280;56331;51.992;20.910;2023-03-20T07:21:03;100084.53;;;22.28;30.24
69221;BME280;56331;51.992;20.910;2023-03-20T07:23:29;100085.91;;;22.28;30.22
69221;BME280;56331;51.992;20.910;2023-03-20T07:25:59;100082.59;;;22.29;30.23
69221;BME280;56331;51.992;20.910;2023-03-20T07:28:25;100078.42;;;22.29;30.49
69221;BME280;56331;51.992;20.910;2023-03-20T07:30:51;100080.61;;;22.30;30.53
69221;BME280;56331;51.992;20.910;2023-03-20T07:33:17;100079.45;;;22.31;30.43
69221;BME280;56331;51.992;20.910;2023-03-20T07:35:44;100081.30;;;22.33;30.27
69221;BME280;56331;51.992;20.910;2023-03-20T07:38:10;100078.52;;;22.33;30.17
69221;BME280;56331;51.992;20.910;2023-03-20T07:40:36;100079.55;;;22.34;30.10
69221;BME280;56331;51.992;20.910;2023-03-20T07:43:03;100077.35;;;22.34;30.07
69221;BME280;56331;51.992;20.910;2023-03-20T07:45:29;100084.53;;;22.35;30.02
69221;BME280;56331;51.992;20.910;2023-03-20T07:47:55;100085.55;;;22.36;29.91
69221;BME280;56331;51.992;20.910;2023-03-20T07:50:21;100081.39;;;22.36;29.79
69221;BME280;56331;51.992;20.910;2023-03-20T07:52:48;100088.21;;;22.39;29.77
69221;BME280;56331;51.992;20.910;2023-03-20T07:55:14;100082.44;;;22.38;29.75
69221;BME280;56331;51.992;20.910;2023-03-20T07:57:41;100077.11;;;22.39;29.88
69221;BME280;56331;51.992;20.910;2023-03-20T08:00:07;100080.94;;;22.40;30.01
69221;BME280;56331;51.992;20.910;2023-03-20T08:02:34;100076.19;;;22.41;30.10
69221;BME280;56331;51.992;20.910;2023-03-20T08:05:01;100071.68;;;22.42;30.29
69221;BME280;56331;51.992;20.910;2023-03-20T08:07:27;100072.12;;;22.44;30.27
69221;BME280;56331;51.992;20.910;2023-03-20T08:09:54;100075.72;;;22.45;30.32
69221;BME280;56331;51.992;20.910;2023-03-20T08:12:21;100069.22;;;22.47;30.19
69221;BME280;56331;51.992;20.910;2023-03-20T08:14:50;100067.70;;;22.49;31.04
69221;BME280;56331;51.992;20.910;2023-03-20T08:17:18;100069.22;;;22.53;31.91
69221;BME280;56331;51.992;20.910;2023-03-20T08:19:44;100068.16;;;22.58;32.10
69221;BME280;56331;51.992;20.910;2023-03-20T08:22:10;100069.43;;;22.60;32.27
69221;BME280;56331;51.992;20.910;2023-03-20T08:24:36;100066.96;;;22.65;32.10
69221;BME280;56331;51.992;20.910;2023-03-20T08:27:07;100069.27;;;22.69;32.01
69221;BME280;56331;51.992;20.910;2023-03-20T08:29:35;100067.76;;;22.71;31.70
69221;BME280;56331;51.992;20.910;2023-03-20T08:32:01;100069.02;;;22.74;31.64
69221;BME280;56331;51.992;20.910;2023-03-20T08:34:27;100064.94;;;22.78;31.44
69221;BME280;56331;51.992;20.910;2023-03-20T08:36:53;100069.56;;;22.80;31.29
69221;BME280;56331;51.992;20.910;2023-03-20T08:39:19;100071.42;;;22.82;31.27
69221;BME280;56331;51.992;20.910;2023-03-20T08:41:46;100072.44;;;22.83;31.21
69221;BME280;56331;51.992;20.910;2023-03-20T08:44:12;100073.14;;;22.86;31.19
69221;BME280;56331;51.992;20.910;2023-03-20T08:46:38;100071.63;;;22.89;31.12
69221;BME280;56331;51.992;20.910;2023-03-20T08:49:05;100069.86;;;22.90;31.05
69221;BME280;56331;51.992;20.910;2023-03-20T08:51:31;100072.85;;;22.91;31.01
69221;BME280;56331;51.992;20.910;2023-03-20T08:53:57;100076.89;;;22.94;30.97
69221;BME280;56331;51.992;20.910;2023-03-20T08:56:24;100074.36;;;22.95;30.92
69221;BME280;56331;51.992;20.910;2023-03-20T08:58:55;100075.41;;;22.97;31.23
69221;BME280;56331;51.992;20.910;2023-03-20T09:01:20;100078.64;;;22.99;31.67
69221;BME280;56331;51.992;20.910;2023-03-20T09:03:45;100072.75;;;23.00;31.73
69221;BME280;56331;51.992;20.910;2023-03-20T09:06:12;100077.72;;;23.01;31.70
69221;BME280;56331;51.992;20.910;2023-03-20T09:08:38;100077.59;;;23.03;31.85
69221;BME280;56331;51.992;20.910;2023-03-20T09:11:06;100089.96;;;23.06;31.92
69221;BME280;56331;51.992;20.910;2023-03-20T09:13:32;100076.53;;;23.08;32.05
69221;BME280;56331;51.992;20.910;2023-03-20T09:15:59;100083.09;;;23.09;32.13
69221;BME280;56331;51.992;20.910;2023-03-20T09:18:25;100078.59;;;23.11;32.26
69221;BME280;56331;51.992;20.910;2023-03-20T09:20:51;100079.26;;;23.14;32.25
69221;BME280;56331;51.992;20.910;2023-03-20T09:23:17;100081.70;;;23.15;32.29
69221;BME280;56331;51.992;20.910;2023-03-20T09:25:48;100085.48;;;23.17;32.37
69221;BME280;56331;51.992;20.910;2023-03-20T09:28:14;100081.19;;;23.20;32.48
69221;BME280;56331;51.992;20.910;2023-03-20T09:30:40;100079.45;;;23.21;32.59
69221;BME280;56331;51.992;20.910;2023-03-20T09:33:08;100078.87;;;23.22;32.51
69221;BME280;56331;51.992;20.910;2023-03-20T09:35:34;100078.39;;;23.26;32.31
69221;BME280;56331;51.992;20.910;2023-03-20T09:38:00;100075.03;;;23.26;32.01
69221;BME280;56331;51.992;20.910;2023-03-20T09:40:30;100067.70;;;23.28;31.69
69221;BME280;56331;51.992;20.910;2023-03-20T09:50:37;100073.00;;;23.33;30.98
69221;BME280;56331;51.992;20.910;2023-03-20T09:55:45;100067.09;;;23.34;31.11
69221;BME280;56331;51.992;20.910;2023-03-20T10:00:48;100070.33;;;23.36;31.13
69221;BME280;56331;51.992;20.910;2023-03-20T10:03:16;100067.17;;;23.38;31.10
69221;BME280;56331;51.992;20.910;2023-03-20T10:05:44;100073.78;;;23.40;31.05
69221;BME280;56331;51.992;20.910;2023-03-20T10:08:11;100069.02;;;23.40;30.96
69221;BME280;56331;51.992;20.910;2023-03-20T10:10:41;100071.21;;;23.41;30.88
69221;BME280;56331;51.992;20.910;2023-03-20T10:15:47;100072.47;;;23.43;30.69
69221;BME280;56331;51.992;20.910;2023-03-20T10:20:43;100075.48;;;23.44;30.55
69221;BME280;56331;51.992;20.910;2023-03-20T10:25:49;100071.75;;;23.46;30.55
69221;BME280;56331;51.992;20.910;2023-03-20T10:28:19;100070.36;;;23.46;30.58
69221;BME280;56331;51.992;20.910;2023-03-20T10:30:54;100072.58;;;23.47;30.39
69221;BME280;56331;51.992;20.910;2023-03-20T10:41:08;100061.45;;;23.47;30.08
69221;BME280;56331;51.992;20.910;2023-03-20T10:43:34;100058.44;;;23.46;30.07
69221;BME280;56331;51.992;20.910;2023-03-20T10:51:02;100062.02;;;23.46;29.97
69221;BME280;56331;51.992;20.910;2023-03-20T10:56:09;100060.41;;;23.45;30.03
69221;BME280;56331;51.992;20.910;2023-03-20T10:58:39;100064.58;;;23.45;30.07
69221;BME280;56331;51.992;20.910;2023-03-20T11:01:06;100063.20;;;23.45;30.10
69221;BME280;56331;51.992;20.910;2023-03-20T11:03:32;100058.01;;;23.44;30.11
69221;BME280;56331;51.992;20.910;2023-03-20T11:06:01;100058.36;;;23.42;30.10
69221;BME280;56331;51.992;20.910;2023-03-20T11:08:30;100061.14;;;23.42;30.10
69221;BME280;56331;51.992;20.910;2023-03-20T11:10:58;100056.97;;;23.42;30.08
69221;BME280;56331;51.992;20.910;2023-03-20T11:15:56;100052.58;;;23.41;30.08
69221;BME280;56331;51.992;20.910;2023-03-20T11:18:24;100053.14;;;23.41;30.09
69221;BME280;56331;51.992;20.910;2023-03-20T11:20:51;100053.73;;;23.40;30.10
69221;BME280;56331;51.992;20.910;2023-03-20T11:23:19;100050.73;;;23.39;30.10
69221;BME280;56331;51.992;20.910;2023-03-20T11:25:49;100055.50;;;23.39;30.12
69221;BME280;56331;51.992;20.910;2023-03-20T11:31:06;100054.45;;;23.37;30.38
69221;BME280;56331;51.992;20.910;2023-03-20T11:33:30;100050.63;;;23.35;30.72
69221;BME280;56331;51.992;20.910;2023-03-20T11:35:57;100047.50;;;23.37;30.94
69221;BME280;56331;51.992;20.910;2023-03-20T11:38:23;100043.68;;;23.35;31.08
69221;BME280;56331;51.992;20.910;2023-03-20T11:40:50;100036.17;;;23.36;31.14
69221;BME280;56331;51.992;20.910;2023-03-20T11:43:21;100034.78;;;23.36;31.16
69221;BME280;56331;51.992;20.910;2023-03-20T11:45:58;100032.00;;;23.36;31.20
69221;BME280;56331;51.992;20.910;2023-03-20T11:48:23;100034.20;;;23.36;31.29
69221;BME280;56331;51.992;20.910;2023-03-20T11:51:02;100036.59;;;23.38;31.39
69221;BME280;56331;51.992;20.910;2023-03-20T11:53:34;100041.59;;;23.39;31.51
69221;BME280;56331;51.992;20.910;2023-03-20T11:55:59;100037.98;;;23.38;31.67
69221;BME280;56331;51.992;20.910;2023-03-20T11:58:25;100034.41;;;23.37;31.80
69221;BME280;56331;51.992;20.910;2023-03-20T12:00:52;100036.84;;;23.39;31.97
69221;BME280;56331;51.992;20.910;2023-03-20T12:06:05;100032.30;;;23.41;32.09
69221;BME280;56331;51.992;20.910;2023-03-20T12:08:33;100034.73;;;23.42;32.07
69221;BME280;56331;51.992;20.910;2023-03-20T12:11:05;100031.60;;;23.44;32.00
69221;BME280;56331;51.992;20.910;2023-03-20T12:13:31;100026.25;;;23.45;31.93
69221;BME280;56331;51.992;20.910;2023-03-20T12:15:58;100029.83;;;23.45;31.85
69221;BME280;56331;51.992;20.910;2023-03-20T12:18:34;100027.51;;;23.47;31.81
69221;BME280;56331;51.992;20.910;2023-03-20T12:21:14;100026.70;;;23.47;31.76
69221;BME280;56331;51.992;20.910;2023-03-20T12:23:45;100027.51;;;23.47;31.71
69221;BME280;56331;51.992;20.910;2023-03-20T12:26:17;100030.29;;;23.47;31.67
69221;BME280;56331;51.992;20.910;2023-03-20T12:36:31;100025.98;;;23.50;31.42
69221;BME280;56331;51.992;20.910;2023-03-20T12:38:57;100022.61;;;23.50;31.22
69221;BME280;56331;51.992;20.910;2023-03-20T12:41:24;100026.44;;;23.52;30.98
69221;BME280;56331;51.992;20.910;2023-03-20T12:46:28;100017.50;;;23.52;30.96
69221;BME280;56331;51.992;20.910;2023-03-20T12:49:01;100019.70;;;23.53;30.96
69221;BME280;56331;51.992;20.910;2023-03-20T13:10:20;100007.50;;;23.57;30.83
69221;BME280;56331;51.992;20.910;2023-03-20T13:12:57;100007.71;;;23.58;31.07
69221;BME280;56331;51.992;20.910;2023-03-20T13:18:00;100000.76;;;23.58;31.57
69221;BME280;56331;51.992;20.910;2023-03-20T13:20:24;100001.21;;;23.61;31.75
69221;BME280;56331;51.992;20.910;2023-03-20T13:23:01;99994.85;;;23.60;31.88
69221;BME280;56331;51.992;20.910;2023-03-20T13:38:02;99999.89;;;23.64;31.73
69221;BME280;56331;51.992;20.910;2023-03-20T13:40:29;99992.14;;;23.64;31.73
69221;BME280;56331;51.992;20.910;2023-03-20T13:45:37;99996.77;;;23.66;31.95
69221;BME280;56331;51.992;20.910;2023-03-20T13:48:26;99989.81;;;23.66;32.06
69221;BME280;56331;51.992;20.910;2023-03-20T13:50:32;100004.52;;;23.66;32.24
69221;BME280;56331;51.992;20.910;2023-03-20T13:53:00;99999.75;;;23.67;32.40
69221;BME280;56331;51.992;20.910;2023-03-20T13:55:35;99994.05;;;23.69;32.55
69221;BME280;56331;51.992;20.910;2023-03-20T13:58:01;99985.16;;;23.70;32.62
69221;BME280;56331;51.992;20.910;2023-03-20T14:00:28;99991.72;;;23.71;32.75
69221;BME280;56331;51.992;20.910;2023-03-20T14:05:40;99990.33;;;23.71;33.24
69221;BME280;56331;51.992;20.910;2023-03-20T14:10:47;99982.47;;;23.73;33.47
69221;BME280;56331;51.992;20.910;2023-03-20T14:13:18;99977.92;;;23.75;33.45
69221;BME280;56331;51.992;20.910;2023-03-20T14:15:55;99983.72;;;23.76;33.34
69221;BME280;56331;51.992;20.910;2023-03-20T14:18:19;99980.34;;;23.76;33.37
69221;BME280;56331;51.992;20.910;2023-03-20T14:20:50;99986.50;;;23.76;33.48
69221;BME280;56331;51.992;20.910;2023-03-20T14:23:17;99985.91;;;23.76;33.59
69221;BME280;56331;51.992;20.910;2023-03-20T14:25:45;99988.34;;;23.78;33.75
69221;BME280;56331;51.992;20.910;2023-03-20T14:30:41;99989.73;;;23.78;33.97
69221;BME280;56331;51.992;20.910;2023-03-20T14:38:58;99992.13;;;23.79;34.03
69221;BME280;56331;51.992;20.910;2023-03-20T14:40:44;99999.89;;;23.80;34.01
69221;BME280;56331;51.992;20.910;2023-03-20T14:43:24;99999.89;;;23.80;33.95
69221;BME280;56331;51.992;20.910;2023-03-20T14:45:47;100000.93;;;23.82;33.95
69221;BME280;56331;51.992;20.910;2023-03-20T14:48:23;100005.69;;;23.81;33.95
69221;BME280;56331;51.992;20.910;2023-03-20T14:53:21;100004.06;;;23.80;34.07
69221;BME280;56331;51.992;20.910;2023-03-20T15:01:09;99995.37;;;23.82;33.80
69221;BME280;56331;51.992;20.910;2023-03-20T15:03:35;100002.53;;;23.83;33.59